createdAt,value
2018-08-04T00:02:10.225Z,3.90
2018-08-04T00:04:40.687Z,3.77
2018-08-04T00:07:09.762Z,3.60
2018-08-04T00:09:38.843Z,3.92
2018-08-04T00:12:08.416Z,4.12
2018-08-04T00:14:37.904Z,4.20
2018-08-04T00:17:06.958Z,4.45
2018-08-04T00:19:36.199Z,4.10
2018-08-04T00:22:05.435Z,4.58
2018-08-04T00:24:34.933Z,4.40
2018-08-04T00:27:04.228Z,4.50
2018-08-04T00:29:33.269Z,4.62
2018-08-04T00:32:04.062Z,4.65
2018-08-04T00:34:33.151Z,4.40
2018-08-04T00:37:02.259Z,4.53
2018-08-04T00:39:31.859Z,3.80
2018-08-04T00:42:00.952Z,4.95
2018-08-04T00:44:30.062Z,4.55
2018-08-04T00:46:59.435Z,3.72
2018-08-04T00:49:28.529Z,4.20
2018-08-04T00:51:57.596Z,4.50
2018-08-04T00:54:27.067Z,3.80
2018-08-04T00:56:56.142Z,4.00
2018-08-04T00:59:25.567Z,4.05
2018-08-04T01:01:54.812Z,3.90
2018-08-04T01:04:23.853Z,3.90
2018-08-04T01:06:52.929Z,4.00
2018-08-04T01:09:22.217Z,3.98
2018-08-04T01:11:51.330Z,3.45
2018-08-04T01:14:20.421Z,3.52
2018-08-04T01:16:49.809Z,3.87
2018-08-04T01:19:18.878Z,4.30
2018-08-04T01:21:47.972Z,3.62
2018-08-04T01:24:17.201Z,3.33
2018-08-04T01:26:46.328Z,3.60
2018-08-04T01:29:15.446Z,3.30
2018-08-04T01:31:45.613Z,3.42
2018-08-04T01:34:15.202Z,3.83
2018-08-04T01:36:44.941Z,4.15
2018-08-04T01:39:14.019Z,3.67
2018-08-04T01:41:43.129Z,3.80
2018-08-04T01:44:12.526Z,4.00
2018-08-04T01:46:41.837Z,3.40
2018-08-04T01:49:10.882Z,3.50
2018-08-04T01:51:40.100Z,3.62
2018-08-04T01:54:09.194Z,2.92
2018-08-04T01:56:38.611Z,3.50
2018-08-04T01:59:07.709Z,4.00
2018-08-04T02:01:36.917Z,3.72
2018-08-04T02:04:06.014Z,3.70
2018-08-04T02:06:35.298Z,4.42
2018-08-04T02:09:06.484Z,3.42
2018-08-04T02:11:36.054Z,3.35
2018-08-04T02:14:07.446Z,3.72
2018-08-04T02:16:36.833Z,4.00
2018-08-04T02:19:07.372Z,3.20
2018-08-04T02:21:36.870Z,3.40
2018-08-04T02:24:07.633Z,3.60
2018-08-04T02:26:36.733Z,3.52
2018-08-04T02:29:07.396Z,3.02
2018-08-04T02:31:36.808Z,3.37
2018-08-04T02:34:07.409Z,3.30
2018-08-04T02:36:38.060Z,3.47
2018-08-04T02:39:08.781Z,3.33
2018-08-04T02:41:39.018Z,3.40
2018-08-04T02:44:08.057Z,3.22
2018-08-04T02:46:37.129Z,3.30
2018-08-04T02:49:07.744Z,3.72
2018-08-04T02:51:36.848Z,3.77
2018-08-04T02:54:08.219Z,3.67
2018-08-04T02:56:37.314Z,3.08
2018-08-04T02:59:07.667Z,3.10
2018-08-04T03:01:36.710Z,3.40
2018-08-04T03:04:07.515Z,3.58
2018-08-04T03:06:36.596Z,3.50
2018-08-04T03:09:10.066Z,3.10
2018-08-04T03:11:39.421Z,3.35
2018-08-04T03:14:08.663Z,3.22
2018-08-04T03:16:38.545Z,3.63
2018-08-04T03:19:07.918Z,3.75
2018-08-04T03:21:40.112Z,3.33
2018-08-04T03:24:09.227Z,3.85
2018-08-04T03:26:38.475Z,3.77
2018-08-04T03:29:07.716Z,3.20
2018-08-04T03:31:36.881Z,3.30
2018-08-04T03:34:08.658Z,3.20
2018-08-04T03:36:37.733Z,3.02
2018-08-04T03:39:10.061Z,3.37
2018-08-04T03:41:39.644Z,3.30
2018-08-04T03:44:08.738Z,3.27
2018-08-04T03:46:38.867Z,3.25
2018-08-04T03:49:08.129Z,3.02
2018-08-04T03:51:37.187Z,3.00
2018-08-04T03:54:08.098Z,2.83
2018-08-04T03:56:37.297Z,3.17
2018-08-04T03:59:07.313Z,2.95
2018-08-04T04:01:36.495Z,2.85
2018-08-04T04:04:07.134Z,3.27
2018-08-04T04:06:36.692Z,2.95
2018-08-04T04:09:08.998Z,3.40
2018-08-04T04:11:39.617Z,3.63
2018-08-04T04:14:08.709Z,3.08
2018-08-04T04:16:37.851Z,3.10
2018-08-04T04:19:07.817Z,3.07
2018-08-04T04:21:36.970Z,2.97
2018-08-04T04:24:07.217Z,2.80
2018-08-04T04:26:36.556Z,2.85
2018-08-04T04:29:07.511Z,2.85
2018-08-04T04:31:36.698Z,2.77
2018-08-04T04:34:07.867Z,2.87
2018-08-04T04:36:36.973Z,2.70
2018-08-04T04:39:09.821Z,2.72
2018-08-04T04:41:39.566Z,2.17
2018-08-04T04:44:09.241Z,2.80
2018-08-04T04:46:40.358Z,2.43
2018-08-04T04:49:12.351Z,2.52
2018-08-04T04:51:42.393Z,2.40
2018-08-04T04:54:11.572Z,2.80
2018-08-04T04:56:40.874Z,2.70
2018-08-04T04:59:10.360Z,2.43
2018-08-04T05:01:39.491Z,2.20
2018-08-04T05:04:08.844Z,2.30
2018-08-04T05:06:38.915Z,2.33
2018-08-04T05:09:09.776Z,2.50
2018-08-04T05:11:38.927Z,2.63
2018-08-04T05:14:07.997Z,2.20
2018-08-04T05:16:37.512Z,2.43
2018-08-04T05:19:07.416Z,2.40
2018-08-04T05:21:43.459Z,2.60
2018-08-04T05:24:12.703Z,2.57
2018-08-04T05:26:42.299Z,2.90
2018-08-04T05:29:11.996Z,2.50
2018-08-04T05:31:41.202Z,2.53
2018-08-04T05:34:10.370Z,2.90
2018-08-04T05:36:40.185Z,2.83
2018-08-04T05:39:11.780Z,2.30
2018-08-04T05:41:41.138Z,2.20
2018-08-04T05:44:10.442Z,2.43
2018-08-04T05:46:39.538Z,2.47
2018-08-04T05:49:08.773Z,2.70
2018-08-04T05:51:37.878Z,2.50
2018-08-04T05:54:07.346Z,2.30
2018-08-04T05:56:36.844Z,2.60
2018-08-04T05:59:07.195Z,2.33
2018-08-04T06:01:36.769Z,2.33
2018-08-04T06:04:07.635Z,2.15
2018-08-04T06:06:36.924Z,2.27
2018-08-04T06:09:09.471Z,2.25
2018-08-04T06:11:39.099Z,2.40
2018-08-04T06:14:09.148Z,2.63
2018-08-04T06:16:38.334Z,3.60
2018-08-04T06:19:07.412Z,2.53
2018-08-04T06:21:36.931Z,2.37
2018-08-04T06:24:07.779Z,2.17
2018-08-04T06:26:37.115Z,2.57
2018-08-04T06:29:08.012Z,2.17
2018-08-04T06:31:37.723Z,3.03
2018-08-04T06:34:07.490Z,3.00
2018-08-04T06:36:37.121Z,2.72
2018-08-04T06:39:08.109Z,2.45
2018-08-04T06:41:39.145Z,2.70
2018-08-04T06:44:08.207Z,2.40
2018-08-04T06:46:37.290Z,2.60
2018-08-04T06:49:07.820Z,2.33
2018-08-04T06:51:36.924Z,2.53
2018-08-04T06:54:07.770Z,2.30
2018-08-04T06:56:36.830Z,2.73
2018-08-04T06:59:07.392Z,2.10
2018-08-04T07:01:36.442Z,2.40
2018-08-04T07:04:07.614Z,2.57
2018-08-04T07:06:36.758Z,2.37
2018-08-04T07:09:08.757Z,2.20
2018-08-04T07:11:38.016Z,2.05
2018-08-04T07:14:09.209Z,2.90
2018-08-04T07:16:39.096Z,2.70
2018-08-04T07:19:08.247Z,20.40
2018-08-04T07:21:37.745Z,2.70
2018-08-04T07:24:07.534Z,2.37
2018-08-04T07:26:36.624Z,2.30
2018-08-04T07:29:09.856Z,2.87
2018-08-04T07:31:39.050Z,2.30
2018-08-04T07:34:08.638Z,1.72
2018-08-04T07:36:37.749Z,2.30
2018-08-04T07:39:09.508Z,2.30
2018-08-04T07:41:38.916Z,2.00
2018-08-04T07:44:08.020Z,2.17
2018-08-04T07:46:37.894Z,2.47
2018-08-04T07:49:07.676Z,2.40
2018-08-04T07:51:36.889Z,2.52
2018-08-04T07:54:07.641Z,2.50
2018-08-04T07:56:37.397Z,2.65
2018-08-04T07:59:09.327Z,2.35
2018-08-04T08:01:38.380Z,2.90
2018-08-04T08:04:07.487Z,2.55
2018-08-04T08:06:37.017Z,2.70
2018-08-04T08:09:07.995Z,2.98
2018-08-04T08:11:37.533Z,2.50
2018-08-04T08:14:08.397Z,2.80
2018-08-04T08:16:37.464Z,2.75
2018-08-04T08:19:07.715Z,2.60
2018-08-04T08:21:36.903Z,2.45
2018-08-04T08:24:07.864Z,2.50
2018-08-04T08:26:37.009Z,3.00
2018-08-04T08:29:08.051Z,2.45
2018-08-04T08:31:41.014Z,3.30
2018-08-04T08:34:10.447Z,2.33
2018-08-04T08:36:39.561Z,2.15
2018-08-04T08:39:09.205Z,2.35
2018-08-04T08:41:38.619Z,2.02
2018-08-04T08:44:07.692Z,2.67
2018-08-04T08:46:36.791Z,2.40
2018-08-04T08:49:08.006Z,2.45
2018-08-04T08:51:37.091Z,2.33
2018-08-04T08:54:08.270Z,2.37
2018-08-04T08:56:37.358Z,2.27
2018-08-04T08:59:07.666Z,2.62
2018-08-04T09:01:36.890Z,2.47
2018-08-04T09:04:07.679Z,1.92
2018-08-04T09:06:36.828Z,2.00
2018-08-04T09:09:09.727Z,1.77
2018-08-04T09:11:38.807Z,2.20
2018-08-04T09:14:07.906Z,2.33
2018-08-04T09:16:37.204Z,1.85
2018-08-04T09:19:07.408Z,1.77
2018-08-04T09:21:36.930Z,2.05
2018-08-04T09:24:07.303Z,1.90
2018-08-04T09:26:36.665Z,1.90
2018-08-04T09:29:08.332Z,1.75
2018-08-04T09:31:38.000Z,2.30
2018-08-04T09:34:07.819Z,1.98
2018-08-04T09:36:37.062Z,2.42
2018-08-04T09:39:11.428Z,2.70
2018-08-04T09:41:41.096Z,2.15
2018-08-04T09:44:10.958Z,2.25
2018-08-04T09:46:41.116Z,2.33
2018-08-04T09:49:10.696Z,2.10
2018-08-04T09:51:39.768Z,2.52
2018-08-04T09:54:08.858Z,2.30
2018-08-04T09:56:38.481Z,2.75
2018-08-04T09:59:07.542Z,2.95
2018-08-04T10:01:39.003Z,2.80
2018-08-04T10:04:08.867Z,2.77
2018-08-04T10:06:38.745Z,2.47
2018-08-04T10:09:10.925Z,2.60
2018-08-04T10:11:40.968Z,2.75
2018-08-04T10:14:10.077Z,2.87
2018-08-04T10:16:39.444Z,2.45
2018-08-04T10:19:08.572Z,1.92
2018-08-04T10:21:37.655Z,1.92
2018-08-04T10:24:07.677Z,2.22
2018-08-04T10:26:36.765Z,2.25
2018-08-04T10:29:08.596Z,2.02
2018-08-04T10:31:37.696Z,2.30
2018-08-04T10:34:09.107Z,2.00
2018-08-04T10:36:38.204Z,1.70
2018-08-04T10:39:09.073Z,1.80
2018-08-04T10:41:38.566Z,1.82
2018-08-04T10:44:08.034Z,1.90
2018-08-04T10:46:37.151Z,2.12
2018-08-04T10:49:07.708Z,1.87
2018-08-04T10:51:37.446Z,2.08
2018-08-04T10:54:07.470Z,1.87
2018-08-04T10:56:36.569Z,2.30
2018-08-04T10:59:07.673Z,3.70
2018-08-04T11:01:36.779Z,2.20
2018-08-04T11:04:08.209Z,2.15
2018-08-04T11:06:37.297Z,1.82
2018-08-04T11:09:09.548Z,1.60
2018-08-04T11:11:38.898Z,1.75
2018-08-04T11:14:08.854Z,2.40
2018-08-04T11:16:38.843Z,2.08
2018-08-04T11:19:08.168Z,2.00
2018-08-04T11:21:37.254Z,2.00
2018-08-04T11:26:42.782Z,1.92
2018-08-04T11:29:11.897Z,2.65
2018-08-04T11:31:40.963Z,2.22
2018-08-04T11:34:11.192Z,1.98
2018-08-04T11:36:40.460Z,2.17
2018-08-04T11:39:11.340Z,2.17
2018-08-04T11:41:40.740Z,2.05
2018-08-04T11:44:10.848Z,2.52
2018-08-04T11:46:39.928Z,2.40
2018-08-04T11:49:09.444Z,2.05
2018-08-04T11:51:38.844Z,1.98
2018-08-04T11:54:07.854Z,2.50
2018-08-04T11:56:37.319Z,2.27
2018-08-04T11:59:06.435Z,2.22
2018-08-04T12:01:35.742Z,2.20
2018-08-04T12:04:07.413Z,2.30
2018-08-04T12:06:36.920Z,2.27
2018-08-04T12:09:11.099Z,2.65
2018-08-04T12:11:40.427Z,2.55
2018-08-04T12:14:10.385Z,2.60
2018-08-04T12:16:39.871Z,2.80
2018-08-04T12:19:09.336Z,2.40
2018-08-04T12:21:38.415Z,2.58
2018-08-04T12:24:07.590Z,2.67
2018-08-04T12:26:37.019Z,2.75
2018-08-04T12:29:06.112Z,2.50
2018-08-04T12:31:35.237Z,2.80
2018-08-04T12:34:07.769Z,2.98
2018-08-04T12:36:38.143Z,2.62
2018-08-04T12:39:09.212Z,2.60
2018-08-04T12:41:38.672Z,2.65
2018-08-04T12:44:08.723Z,2.30
2018-08-04T12:46:38.590Z,2.77
2018-08-04T12:49:08.098Z,2.70
2018-08-04T12:51:37.507Z,2.20
2018-08-04T12:54:07.537Z,2.27
2018-08-04T12:56:36.991Z,2.70
2018-08-04T12:59:07.760Z,2.60
2018-08-04T13:01:36.846Z,2.60
2018-08-04T13:04:07.846Z,2.27
2018-08-04T13:06:36.914Z,2.62
2018-08-04T13:09:09.291Z,2.33
2018-08-04T13:11:38.378Z,2.30
2018-08-04T13:14:07.511Z,2.05
2018-08-04T13:16:36.874Z,2.17
2018-08-04T13:19:07.484Z,2.85
2018-08-04T13:21:37.208Z,2.47
2018-08-04T13:24:07.512Z,2.42
2018-08-04T13:26:37.353Z,2.65
2018-08-04T13:29:07.722Z,2.72
2018-08-04T13:31:37.076Z,2.15
2018-08-04T13:34:07.628Z,2.33
2018-08-04T13:36:36.692Z,2.20
2018-08-04T13:39:09.350Z,2.30
2018-08-04T13:41:38.997Z,1.92
2018-08-04T13:44:08.202Z,1.90
2018-08-04T13:46:37.688Z,1.92
2018-08-04T13:49:07.451Z,2.50
2018-08-04T13:51:36.609Z,2.12
2018-08-04T13:54:08.461Z,2.15
2018-08-04T13:56:37.956Z,2.00
2018-08-04T13:59:08.234Z,1.92
2018-08-04T14:01:37.595Z,1.87
2018-08-04T14:04:08.261Z,2.22
2018-08-04T14:06:37.331Z,2.10
2018-08-04T14:09:09.400Z,2.02
2018-08-04T14:11:38.514Z,1.92
2018-08-04T14:14:08.778Z,2.10
2018-08-04T14:16:38.302Z,2.12
2018-08-04T14:19:07.441Z,2.10
2018-08-04T14:21:36.838Z,1.87
2018-08-04T14:24:07.653Z,2.80
2018-08-04T14:26:36.762Z,2.20
2018-08-04T14:29:07.472Z,2.05
2018-08-04T14:31:36.888Z,1.77
2018-08-04T14:34:07.684Z,1.95
2018-08-04T14:36:37.145Z,2.60
2018-08-04T14:39:11.116Z,2.00
2018-08-04T14:41:40.214Z,1.70
2018-08-04T14:44:09.323Z,2.17
2018-08-04T14:46:38.708Z,1.90
2018-08-04T14:49:07.782Z,1.75
2018-08-04T14:51:36.931Z,2.10
2018-08-04T14:54:07.792Z,2.62
2018-08-04T14:56:37.229Z,2.25
2018-08-04T14:59:08.373Z,1.98
2018-08-04T15:01:37.788Z,2.00
2018-08-04T15:04:07.431Z,1.98
2018-08-04T15:06:36.895Z,2.10
2018-08-04T15:09:09.939Z,1.50
2018-08-04T15:11:39.572Z,1.87
2018-08-04T15:14:09.227Z,5.12
2018-08-04T15:16:38.318Z,1.70
2018-08-04T15:19:07.736Z,1.90
2018-08-04T15:21:37.513Z,1.82
2018-08-04T15:24:07.614Z,2.10
2018-08-04T15:26:36.688Z,2.02
2018-08-04T15:29:14.110Z,2.00
2018-08-04T15:31:43.387Z,1.98
2018-08-04T15:34:12.671Z,2.10
2018-08-04T15:36:42.229Z,1.90
2018-08-04T15:39:12.551Z,2.10
2018-08-04T15:41:41.874Z,1.80
2018-08-04T15:44:11.156Z,1.42
2018-08-04T15:46:40.548Z,1.60
2018-08-04T15:49:09.995Z,1.50
2018-08-04T15:51:39.178Z,2.00
2018-08-04T15:54:08.424Z,2.00
2018-08-04T15:56:37.552Z,2.30
2018-08-04T15:59:08.687Z,1.90
2018-08-04T16:01:37.803Z,2.20
2018-08-04T16:04:07.721Z,3.00
2018-08-04T16:06:37.398Z,2.02
2018-08-04T16:09:09.083Z,1.70
2018-08-04T16:11:38.557Z,1.72
2018-08-04T16:14:08.093Z,1.72
2018-08-04T16:16:37.699Z,2.22
2018-08-04T16:19:07.773Z,2.35
2018-08-04T16:21:37.121Z,1.82
2018-08-04T16:24:07.816Z,1.80
2018-08-04T16:26:36.890Z,1.95
2018-08-04T16:29:08.280Z,1.72
2018-08-04T16:31:37.365Z,1.77
2018-08-04T16:34:08.419Z,1.80
2018-08-04T16:36:37.731Z,1.77
2018-08-04T16:39:11.801Z,2.30
2018-08-04T16:41:40.898Z,1.80
2018-08-04T16:44:10.320Z,2.00
2018-08-04T16:46:39.402Z,2.42
2018-08-04T16:49:08.504Z,1.67
2018-08-04T16:51:37.815Z,1.80
2018-08-04T16:54:07.631Z,1.85
2018-08-04T16:56:36.738Z,1.77
2018-08-04T16:59:07.561Z,1.40
2018-08-04T17:01:36.884Z,1.67
2018-08-04T17:04:07.263Z,2.08
2018-08-04T17:06:36.379Z,2.02
2018-08-04T17:09:09.783Z,1.60
2018-08-04T17:11:39.082Z,2.08
2018-08-04T17:14:08.622Z,1.90
2018-08-04T17:16:37.788Z,2.02
2018-08-04T17:19:07.459Z,2.12
2018-08-04T17:21:36.551Z,1.98
2018-08-04T17:24:07.734Z,2.42
2018-08-04T17:26:37.294Z,2.55
2018-08-04T17:29:07.846Z,3.05
2018-08-04T17:31:37.348Z,2.33
2018-08-04T17:34:07.521Z,2.83
2018-08-04T17:36:36.936Z,1.95
2018-08-04T17:39:09.214Z,2.27
2018-08-04T17:41:38.459Z,2.00
2018-08-04T17:44:09.060Z,3.85
2018-08-04T17:46:38.380Z,2.37
2018-08-04T17:49:08.195Z,2.35
2018-08-04T17:51:37.379Z,2.60
2018-08-04T17:54:09.149Z,2.33
2018-08-04T17:56:38.198Z,2.05
2018-08-04T17:59:08.070Z,2.12
2018-08-04T18:01:37.145Z,2.50
2018-08-04T18:04:07.563Z,2.22
2018-08-04T18:06:36.982Z,2.67
2018-08-04T18:09:08.984Z,2.58
2018-08-04T18:11:39.073Z,2.50
2018-08-04T18:14:08.301Z,2.65
2018-08-04T18:16:37.932Z,2.47
2018-08-04T18:19:07.490Z,2.95
2018-08-04T18:21:36.742Z,2.98
2018-08-04T18:24:07.523Z,2.70
2018-08-04T18:26:36.614Z,2.87
2018-08-04T18:29:08.423Z,2.60
2018-08-04T18:31:37.524Z,2.90
2018-08-04T18:34:07.492Z,2.55
2018-08-04T18:36:37.482Z,2.60
2018-08-04T18:39:09.690Z,2.60
2018-08-04T18:41:39.072Z,2.80
2018-08-04T18:44:08.323Z,2.75
2018-08-04T18:46:37.408Z,3.42
2018-08-04T18:49:07.577Z,3.00
2018-08-04T18:51:36.641Z,4.03
2018-08-04T18:54:07.501Z,4.05
2018-08-04T18:56:36.559Z,3.80
2018-08-04T18:59:07.390Z,3.30
2018-08-04T19:01:36.469Z,3.50
2018-08-04T19:04:07.981Z,3.30
2018-08-04T19:06:37.078Z,3.62
2018-08-04T19:09:09.896Z,2.87
2018-08-04T19:11:39.005Z,2.47
2018-08-04T19:14:08.793Z,2.58
2018-08-04T19:16:38.359Z,2.65
2018-08-04T19:19:07.461Z,2.70
2018-08-04T19:21:36.836Z,2.98
2018-08-04T19:24:07.815Z,6.12
2018-08-04T19:26:37.528Z,3.08
2018-08-04T19:29:07.224Z,2.90
2018-08-04T19:31:36.480Z,3.87
2018-08-04T19:34:07.576Z,3.27
2018-08-04T19:36:37.047Z,2.62
2018-08-04T19:39:08.655Z,2.70
2018-08-04T19:41:38.148Z,2.70
2018-08-04T19:44:07.868Z,2.17
2018-08-04T19:46:36.988Z,3.15
2018-08-04T19:49:07.774Z,2.40
2018-08-04T19:51:37.120Z,2.10
2018-08-04T19:54:07.403Z,2.55
2018-08-04T19:56:36.813Z,2.10
2018-08-04T19:59:07.948Z,2.62
2018-08-04T20:01:37.470Z,2.35
2018-08-04T20:04:07.314Z,2.27
2018-08-04T20:06:37.488Z,1.82
2018-08-04T20:09:09.490Z,2.45
2018-08-04T20:11:39.812Z,2.00
2018-08-04T20:14:09.308Z,2.02
2018-08-04T20:16:38.769Z,2.45
2018-08-04T20:19:08.458Z,2.27
2018-08-04T20:21:37.506Z,2.45
2018-08-04T20:24:07.404Z,2.27
2018-08-04T20:26:36.509Z,2.50
2018-08-04T20:29:07.962Z,2.35
2018-08-04T20:31:37.057Z,3.27
2018-08-04T20:34:07.487Z,2.98
2018-08-04T20:36:36.621Z,2.67
2018-08-04T20:39:10.063Z,3.00
2018-08-04T20:41:39.168Z,3.30
2018-08-04T20:44:08.441Z,2.80
2018-08-04T20:46:38.344Z,2.95
2018-08-04T20:49:07.466Z,3.47
2018-08-04T20:51:36.672Z,3.00
2018-08-04T20:54:08.109Z,3.55
2018-08-04T20:56:37.176Z,2.80
2018-08-04T20:59:07.755Z,2.95
2018-08-04T21:01:47.281Z,3.17
2018-08-04T21:04:16.359Z,3.35
2018-08-04T21:06:46.711Z,3.25
2018-08-04T21:09:16.200Z,4.05
2018-08-04T21:11:49.318Z,3.75
2018-08-04T21:14:19.047Z,4.70
2018-08-04T21:16:48.862Z,4.47
2018-08-04T21:19:20.136Z,4.50
2018-08-04T21:21:49.231Z,4.23
2018-08-04T21:24:19.443Z,3.77
2018-08-04T21:26:49.761Z,3.40
2018-08-04T21:29:18.984Z,3.50
2018-08-04T21:31:48.080Z,2.83
2018-08-04T21:34:17.544Z,2.83
2018-08-04T21:36:46.629Z,3.00
2018-08-04T21:39:19.635Z,3.13
2018-08-04T21:41:49.035Z,3.00
2018-08-04T21:44:19.832Z,3.20
2018-08-04T21:46:50.098Z,3.50
2018-08-04T21:49:19.987Z,3.33
2018-08-04T21:51:50.237Z,3.10
2018-08-04T21:54:20.316Z,3.40
2018-08-04T21:56:49.377Z,3.03
2018-08-04T21:59:18.439Z,3.93
2018-08-04T22:01:53.344Z,3.20
2018-08-04T22:04:22.392Z,4.10
2018-08-04T22:08:07.402Z,4.60
2018-08-04T22:10:36.880Z,4.50
2018-08-04T22:13:07.937Z,5.10
2018-08-04T22:15:37.015Z,5.07
2018-08-04T22:18:07.775Z,5.63
2018-08-04T22:20:36.886Z,4.77
2018-08-04T22:23:07.707Z,5.53
2018-08-04T22:25:37.106Z,6.17
2018-08-04T22:28:07.763Z,5.53
2018-08-04T22:30:37.067Z,6.13
2018-08-04T22:33:07.452Z,5.40
2018-08-04T22:35:36.978Z,5.33
2018-08-04T22:38:07.154Z,4.70
2018-08-04T22:40:36.704Z,4.60
2018-08-04T22:43:07.285Z,4.60
2018-08-04T22:46:15.411Z,4.67
2018-08-04T22:48:46.042Z,3.80
2018-08-04T22:51:19.296Z,5.80
2018-08-04T22:53:49.058Z,5.40
2018-08-04T22:56:18.339Z,4.50
2018-08-04T22:58:47.437Z,4.00
2018-08-04T23:01:16.652Z,3.90
2018-08-04T23:06:15.130Z,4.17
2018-08-04T23:08:44.202Z,3.97
2018-08-04T23:11:13.705Z,3.17
2018-08-04T23:13:42.814Z,4.33
2018-08-04T23:16:12.704Z,3.50
2018-08-04T23:18:42.020Z,4.23
2018-08-04T23:21:11.177Z,4.03
2018-08-04T23:23:40.660Z,4.40
2018-08-04T23:26:09.747Z,5.33
2018-08-04T23:28:38.834Z,5.13
2018-08-04T23:31:08.352Z,5.20
2018-08-04T23:33:38.111Z,5.47
2018-08-04T23:36:07.582Z,6.50
2018-08-04T23:38:36.813Z,8.30
2018-08-04T23:41:07.316Z,7.23
2018-08-04T23:43:36.652Z,8.23
2018-08-04T23:46:07.623Z,6.87
2018-08-04T23:48:37.049Z,6.87
2018-08-04T23:51:07.791Z,8.80
2018-08-04T23:53:36.885Z,8.20
2018-08-04T23:56:07.414Z,9.33
2018-08-04T23:58:36.680Z,9.83
